sensor_id;sensor_type;location;lat;lon;timestamp;pressure;altitude;pressure_sealevel;temperature;humidity
71485;BME280;59300;52.074;4.758;2023-01-27T00:01:25;102645.41;;;4.33;100.00
71485;BME280;59300;52.074;4.758;2023-01-27T00:04:26;102634.00;;;4.31;100.00
71485;BME280;59300;52.074;4.758;2023-01-27T00:07:27;102630.63;;;4.34;100.00
71485;BME280;59300;52.074;4.758;2023-01-27T00:10:29;102624.47;;;4.32;100.00
71485;BME280;59300;52.074;4.758;2023-01-27T00:13:30;102624.28;;;4.25;100.00
71485;BME280;59300;52.074;4.758;2023-01-27T00:16:31;102633.13;;;4.30;100.00
71485;BME280;59300;52.074;4.758;2023-01-27T00:19:33;102631.38;;;4.29;100.00
71485;BME280;59300;52.074;4.758;2023-01-27T00:22:34;102624.47;;;4.32;100.00
71485;BME280;59300;52.074;4.758;2023-01-27T00:25:36;102624.19;;;4.22;100.00
71485;BME280;59300;52.074;4.758;2023-01-27T00:28:37;102618.94;;;4.21;100.00
71485;BME280;59300;52.074;4.758;2023-01-27T00:31:39;102624.03;;;4.16;100.00
71485;BME280;59300;52.074;4.758;2023-01-27T00:34:41;102629.22;;;4.14;100.00
71485;BME280;59300;52.074;4.758;2023-01-27T00:37:43;102627.41;;;4.12;100.00
71485;BME280;59300;52.074;4.758;2023-01-27T00:40:44;102633.47;;;4.11;100.00
71485;BME280;59300;52.074;4.758;2023-01-27T00:43:46;102632.97;;;4.24;100.00
71485;BME280;59300;52.074;4.758;2023-01-27T00:46:48;102633.75;;;4.20;100.00
71485;BME280;59300;52.074;4.758;2023-01-27T00:49:50;102640.78;;;4.23;100.00
71485;BME280;59300;52.074;4.758;2023-01-27T00:52:51;102636.22;;;4.15;100.00
71485;BME280;59300;52.074;4.758;2023-01-27T00:55:52;102636.16;;;4.14;100.00
71485;BME280;59300;52.074;4.758;2023-01-27T00:58:54;102637.69;;;4.06;100.00
71485;BME280;59300;52.074;4.758;2023-01-27T01:01:55;102635.91;;;4.05;100.00
71485;BME280;59300;52.074;4.758;2023-01-27T01:04:57;102635.81;;;4.02;100.00
71485;BME280;59300;52.074;4.758;2023-01-27T01:07:58;102637.38;;;3.95;100.00
71485;BME280;59300;52.074;4.758;2023-01-27T01:11:00;102630.50;;;3.98;100.00
71485;BME280;59300;52.074;4.758;2023-01-27T01:14:01;102635.72;;;3.98;100.00
71485;BME280;59300;52.074;4.758;2023-01-27T01:17:03;102638.34;;;3.98;100.00
71485;BME280;59300;52.074;4.758;2023-01-27T01:20:04;102640.94;;;3.97;100.00
71485;BME280;59300;52.074;4.758;2023-01-27T01:23:06;102637.44;;;3.96;100.00
71485;BME280;59300;52.074;4.758;2023-01-27T01:26:09;102649.47;;;3.91;100.00
71485;BME280;59300;52.074;4.758;2023-01-27T01:29:11;102646.03;;;3.92;100.00
71485;BME280;59300;52.074;4.758;2023-01-27T01:32:12;102650.31;;;3.90;100.00
71485;BME280;59300;52.074;4.758;2023-01-27T01:35:14;102646.84;;;3.91;100.00
71485;BME280;59300;52.074;4.758;2023-01-27T01:38:15;102652.91;;;3.90;100.00
71485;BME280;59300;52.074;4.758;2023-01-27T01:41:17;102653.50;;;3.80;100.00
71485;BME280;59300;52.074;4.758;2023-01-27T01:44:24;102652.75;;;3.84;100.00
71485;BME280;59300;52.074;4.758;2023-01-27T01:47:26;102655.19;;;3.78;100.00
71485;BME280;59300;52.074;4.758;2023-01-27T01:50:27;102658.53;;;3.74;100.00
71485;BME280;59300;52.074;4.758;2023-01-27T01:53:39;102652.41;;;3.72;100.00
71485;BME280;59300;52.074;4.758;2023-01-27T01:57:04;102654.16;;;3.73;100.00
71485;BME280;59300;52.074;4.758;2023-01-27T02:00:04;102669.09;;;3.78;100.00
71485;BME280;59300;52.074;4.758;2023-01-27T02:03:13;102665.53;;;3.75;100.00
71485;BME280;59300;52.074;4.758;2023-01-27T02:06:15;102662.91;;;3.75;100.00
71485;BME280;59300;52.074;4.758;2023-01-27T02:09:17;102662.97;;;3.76;100.00
71485;BME280;59300;52.074;4.758;2023-01-27T02:12:20;102660.28;;;3.73;100.00
71485;BME280;59300;52.074;4.758;2023-01-27T02:15:22;102669.44;;;3.60;100.00
71485;BME280;59300;52.074;4.758;2023-01-27T02:18:26;102674.59;;;3.57;100.00
71485;BME280;59300;52.074;4.758;2023-01-27T02:21:30;102672.88;;;3.59;100.00
71485;BME280;59300;52.074;4.758;2023-01-27T02:24:33;102671.09;;;3.57;100.00
71485;BME280;59300;52.074;4.758;2023-01-27T02:27:38;102674.66;;;3.60;100.00
71485;BME280;59300;52.074;4.758;2023-01-27T02:30:39;102680.97;;;3.67;100.00
71485;BME280;59300;52.074;4.758;2023-01-27T02:33:41;102679.16;;;3.64;100.00
71485;BME280;59300;52.074;4.758;2023-01-27T02:36:44;102677.25;;;3.59;100.00
71485;BME280;59300;52.074;4.758;2023-01-27T02:39:47;102681.38;;;3.52;100.00
71485;BME280;59300;52.074;4.758;2023-01-27T02:42:53;102660.16;;;3.41;100.00
71485;BME280;59300;52.074;4.758;2023-01-27T02:45:55;102669.75;;;3.42;100.00
71485;BME280;59300;52.074;4.758;2023-01-27T02:48:58;102680.22;;;3.42;100.00
71485;BME280;59300;52.074;4.758;2023-01-27T02:51:59;102683.81;;;3.46;100.00
71485;BME280;59300;52.074;4.758;2023-01-27T02:55:01;102679.13;;;3.35;100.00
71485;BME280;59300;52.074;4.758;2023-01-27T02:58:03;102667.00;;;3.37;100.00
71485;BME280;59300;52.074;4.758;2023-01-27T03:01:19;102671.38;;;3.37;100.00
71485;BME280;59300;52.074;4.758;2023-01-27T03:04:21;102671.13;;;3.29;100.00
71485;BME280;59300;52.074;4.758;2023-01-27T03:07:22;102674.53;;;3.27;100.00
71485;BME280;59300;52.074;4.758;2023-01-27T03:10:23;102675.63;;;3.33;100.00
71485;BME280;59300;52.074;4.758;2023-01-27T03:13:25;102682.53;;;3.33;100.00
71485;BME280;59300;52.074;4.758;2023-01-27T03:16:26;102687.63;;;3.28;100.00
71485;BME280;59300;52.074;4.758;2023-01-27T03:19:28;102685.94;;;3.30;100.00
71485;BME280;59300;52.074;4.758;2023-01-27T03:22:29;102678.66;;;3.20;100.00
71485;BME280;59300;52.074;4.758;2023-01-27T03:25:31;102689.19;;;3.23;100.00
71485;BME280;59300;52.074;4.758;2023-01-27T03:28:33;102706.44;;;3.18;100.00
71485;BME280;59300;52.074;4.758;2023-01-27T03:31:52;102707.25;;;3.17;100.00
71485;BME280;59300;52.074;4.758;2023-01-27T03:34:54;102701.00;;;3.12;100.00
71485;BME280;59300;52.074;4.758;2023-01-27T03:38:05;102703.66;;;3.13;100.00
71485;BME280;59300;52.074;4.758;2023-01-27T03:41:06;102708.78;;;3.10;100.00
71485;BME280;59300;52.074;4.758;2023-01-27T03:44:08;102706.84;;;3.04;100.00
71485;BME280;59300;52.074;4.758;2023-01-27T03:47:10;102712.91;;;3.03;100.00
71485;BME280;59300;52.074;4.758;2023-01-27T03:50:11;102716.31;;;3.01;100.00
71485;BME280;59300;52.074;4.758;2023-01-27T03:53:13;102713.78;;;3.04;100.00
71485;BME280;59300;52.074;4.758;2023-01-27T03:56:15;102730.25;;;3.03;100.00
71485;BME280;59300;52.074;4.758;2023-01-27T03:59:17;102725.91;;;3.02;100.00
71485;BME280;59300;52.074;4.758;2023-01-27T04:02:18;102734.50;;;2.99;100.00
71485;BME280;59300;52.074;4.758;2023-01-27T04:05:22;102738.03;;;3.01;100.00
71485;BME280;59300;52.074;4.758;2023-01-27T04:08:24;102737.94;;;2.98;100.00
71485;BME280;59300;52.074;4.758;2023-01-27T04:11:25;102744.81;;;2.96;100.00
71485;BME280;59300;52.074;4.758;2023-01-27T04:14:28;102749.94;;;2.93;100.00
71485;BME280;59300;52.074;4.758;2023-01-27T04:17:30;102757.78;;;2.93;100.00
71485;BME280;59300;52.074;4.758;2023-01-27T04:20:31;102765.53;;;2.91;100.00
71485;BME280;59300;52.074;4.758;2023-01-27T04:23:33;102762.16;;;2.94;100.00
71485;BME280;59300;52.074;4.758;2023-01-27T04:26:34;102767.16;;;2.88;100.00
71485;BME280;59300;52.074;4.758;2023-01-27T04:29:37;102766.34;;;2.90;100.00
71485;BME280;59300;52.074;4.758;2023-01-27T04:32:39;102772.44;;;2.89;100.00
71485;BME280;59300;52.074;4.758;2023-01-27T04:35:44;102775.91;;;2.90;100.00
71485;BME280;59300;52.074;4.758;2023-01-27T04:38:45;102775.88;;;2.88;100.00
71485;BME280;59300;52.074;4.758;2023-01-27T04:41:47;102772.25;;;2.85;100.00
71485;BME280;59300;52.074;4.758;2023-01-27T04:44:48;102769.88;;;2.91;100.00
71485;BME280;59300;52.074;4.758;2023-01-27T04:47:50;102778.53;;;2.90;100.00
71485;BME280;59300;52.074;4.758;2023-01-27T04:50:51;102771.41;;;2.86;100.00
71485;BME280;59300;52.074;4.758;2023-01-27T04:53:53;102769.72;;;2.86;100.00
71485;BME280;59300;52.074;4.758;2023-01-27T04:56:58;102767.97;;;2.87;100.00
71485;BME280;59300;52.074;4.758;2023-01-27T05:00:00;102780.19;;;2.88;100.00
71485;BME280;59300;52.074;4.758;2023-01-27T05:03:02;102771.41;;;2.86;100.00
71485;BME280;59300;52.074;4.758;2023-01-27T05:06:03;102771.41;;;2.86;100.00
71485;BME280;59300;52.074;4.758;2023-01-27T05:09:05;102775.75;;;2.85;100.00
71485;BME280;59300;52.074;4.758;2023-01-27T05:12:06;102774.44;;;2.98;100.00
71485;BME280;59300;52.074;4.758;2023-01-27T05:15:07;102783.84;;;2.93;100.00
71485;BME280;59300;52.074;4.758;2023-01-27T05:18:09;102780.63;;;3.00;100.00
71485;BME280;59300;52.074;4.758;2023-01-27T05:21:11;102791.88;;;2.99;100.00
71485;BME280;59300;52.074;4.758;2023-01-27T05:24:13;102791.16;;;3.03;100.00
71485;BME280;59300;52.074;4.758;2023-01-27T05:27:15;102787.84;;;3.07;100.00
71485;BME280;59300;52.074;4.758;2023-01-27T05:30:16;102789.59;;;3.09;100.00
71485;BME280;59300;52.074;4.758;2023-01-27T05:33:18;102786.06;;;3.06;100.00
71485;BME280;59300;52.074;4.758;2023-01-27T05:36:20;102795.69;;;3.09;100.00
71485;BME280;59300;52.074;4.758;2023-01-27T05:39:22;102796.56;;;3.10;100.00
71485;BME280;59300;52.074;4.758;2023-01-27T05:42:23;102810.41;;;3.07;100.00
71485;BME280;59300;52.074;4.758;2023-01-27T05:45:25;102799.44;;;3.17;100.00
71485;BME280;59300;52.074;4.758;2023-01-27T05:48:26;102802.81;;;3.13;100.00
71485;BME280;59300;52.074;4.758;2023-01-27T05:51:28;102807.13;;;3.13;100.00
71485;BME280;59300;52.074;4.758;2023-01-27T05:54:30;102810.47;;;3.09;100.00
71485;BME280;59300;52.074;4.758;2023-01-27T05:57:32;102802.75;;;3.12;100.00
71485;BME280;59300;52.074;4.758;2023-01-27T06:00:33;102805.34;;;3.12;100.00
71485;BME280;59300;52.074;4.758;2023-01-27T06:03:35;102811.50;;;3.14;100.00
71485;BME280;59300;52.074;4.758;2023-01-27T06:06:36;102808.72;;;3.07;100.00
71485;BME280;59300;52.074;4.758;2023-01-27T06:09:38;102808.91;;;3.14;100.00
71485;BME280;59300;52.074;4.758;2023-01-27T06:12:39;102806.94;;;3.06;100.00
71485;BME280;59300;52.074;4.758;2023-01-27T06:15:41;102814.13;;;3.14;100.00
71485;BME280;59300;52.074;4.758;2023-01-27T06:18:43;102806.09;;;3.07;100.00
71485;BME280;59300;52.074;4.758;2023-01-27T06:21:44;102810.47;;;3.09;100.00
71485;BME280;59300;52.074;4.758;2023-01-27T06:24:46;102816.28;;;3.01;100.00
71485;BME280;59300;52.074;4.758;2023-01-27T06:27:47;102809.47;;;3.05;100.00
71485;BME280;59300;52.074;4.758;2023-01-27T06:30:49;102817.28;;;3.05;100.00
71485;BME280;59300;52.074;4.758;2023-01-27T06:33:50;102823.28;;;3.02;100.00
71485;BME280;59300;52.074;4.758;2023-01-27T06:36:52;102825.06;;;3.03;100.00
71485;BME280;59300;52.074;4.758;2023-01-27T06:39:53;102825.78;;;2.99;100.00
71485;BME280;59300;52.074;4.758;2023-01-27T06:42:56;102833.72;;;3.02;100.00
71485;BME280;59300;52.074;4.758;2023-01-27T06:45:57;102826.47;;;2.94;100.00
71485;BME280;59300;52.074;4.758;2023-01-27T06:48:58;102825.75;;;2.98;100.00
71485;BME280;59300;52.074;4.758;2023-01-27T06:52:00;102829.22;;;2.98;100.00
71485;BME280;59300;52.074;4.758;2023-01-27T06:55:02;102831.75;;;2.95;100.00
71485;BME280;59300;52.074;4.758;2023-01-27T06:58:04;102837.78;;;2.94;100.00
71485;BME280;59300;52.074;4.758;2023-01-27T07:01:05;102838.56;;;2.91;100.00
71485;BME280;59300;52.074;4.758;2023-01-27T07:04:07;102836.69;;;2.87;100.00
71485;BME280;59300;52.074;4.758;2023-01-27T07:07:09;102833.91;;;2.83;100.00
71485;BME280;59300;52.074;4.758;2023-01-27T07:10:10;102832.72;;;2.74;100.00
71485;BME280;59300;52.074;4.758;2023-01-27T07:13:15;102840.44;;;2.71;100.00
71485;BME280;59300;52.074;4.758;2023-01-27T07:16:17;102838.69;;;2.70;100.00
71485;BME280;59300;52.074;4.758;2023-01-27T07:19:18;102846.72;;;2.76;100.00
71485;BME280;59300;52.074;4.758;2023-01-27T07:22:19;102850.16;;;2.75;100.00
71485;BME280;59300;52.074;4.758;2023-01-27T07:25:21;102850.97;;;2.74;100.00
71485;BME280;59300;52.074;4.758;2023-01-27T07:28:23;102845.59;;;2.70;100.00
71485;BME280;59300;52.074;4.758;2023-01-27T07:31:27;102857.63;;;2.66;100.00
71485;BME280;59300;52.074;4.758;2023-01-27T07:34:32;102867.81;;;2.60;100.00
71485;BME280;59300;52.074;4.758;2023-01-27T07:37:33;102866.41;;;2.68;100.00
71485;BME280;59300;52.074;4.758;2023-01-27T07:40:37;102866.28;;;2.65;100.00
71485;BME280;59300;52.074;4.758;2023-01-27T07:43:39;102874.16;;;2.67;100.00
71485;BME280;59300;52.074;4.758;2023-01-27T07:46:41;102881.69;;;2.59;100.00
71485;BME280;59300;52.074;4.758;2023-01-27T07:49:43;102890.06;;;2.50;100.00
71485;BME280;59300;52.074;4.758;2023-01-27T07:52:44;102888.81;;;2.40;100.00
71485;BME280;59300;52.074;4.758;2023-01-27T07:55:46;102891.38;;;2.39;100.00
71485;BME280;59300;52.074;4.758;2023-01-27T07:58:48;102892.94;;;2.35;100.00
71485;BME280;59300;52.074;4.758;2023-01-27T08:01:50;102892.94;;;2.35;100.00
71485;BME280;59300;52.074;4.758;2023-01-27T08:04:51;102900.06;;;2.39;100.00
71485;BME280;59300;52.074;4.758;2023-01-27T08:07:54;102888.81;;;2.40;100.00
71485;BME280;59300;52.074;4.758;2023-01-27T08:10:59;102886.81;;;2.56;100.00
71485;BME280;59300;52.074;4.758;2023-01-27T08:14:01;102897.09;;;2.53;100.00
71485;BME280;59300;52.074;4.758;2023-01-27T08:17:02;102901.66;;;2.58;100.00
71485;BME280;59300;52.074;4.758;2023-01-27T08:20:04;102900.88;;;2.61;100.00
71485;BME280;59300;52.074;4.758;2023-01-27T08:23:07;102895.78;;;2.64;100.00
71485;BME280;59300;52.074;4.758;2023-01-27T08:26:09;102905.72;;;2.50;100.00
71485;BME280;59300;52.074;4.758;2023-01-27T08:29:10;102904.22;;;2.57;100.00
71485;BME280;59300;52.074;4.758;2023-01-27T08:32:15;102900.88;;;2.61;100.00
71485;BME280;59300;52.074;4.758;2023-01-27T08:35:21;102901.72;;;2.60;100.00
71485;BME280;59300;52.074;4.758;2023-01-27T08:38:27;102910.13;;;2.53;100.00
71485;BME280;59300;52.074;4.758;2023-01-27T08:41:30;102907.41;;;2.50;100.00
71485;BME280;59300;52.074;4.758;2023-01-27T08:44:32;102912.63;;;2.50;100.00
71485;BME280;59300;52.074;4.758;2023-01-27T08:47:40;102913.63;;;2.53;100.00
71485;BME280;59300;52.074;4.758;2023-01-27T08:50:44;102911.00;;;2.53;100.00
71485;BME280;59300;52.074;4.758;2023-01-27T08:53:48;102901.72;;;2.60;100.00
71485;BME280;59300;52.074;4.758;2023-01-27T08:56:55;102905.34;;;2.64;100.00
71485;BME280;59300;52.074;4.758;2023-01-27T08:59:59;102911.44;;;2.64;100.00
71485;BME280;59300;52.074;4.758;2023-01-27T09:03:05;102917.38;;;2.83;100.00
71485;BME280;59300;52.074;4.758;2023-01-27T09:06:13;102923.81;;;3.17;100.00
71485;BME280;59300;52.074;4.758;2023-01-27T09:09:25;102918.06;;;3.26;100.00
71485;BME280;59300;52.074;4.758;2023-01-27T09:12:36;102919.03;;;3.29;100.00
71485;BME280;59300;52.074;4.758;2023-01-27T09:15:38;102916.81;;;3.16;100.00
71485;BME280;59300;52.074;4.758;2023-01-27T09:18:44;102905.78;;;2.99;100.00
71485;BME280;59300;52.074;4.758;2023-01-27T09:21:49;102910.81;;;2.94;100.00
71485;BME280;59300;52.074;4.758;2023-01-27T09:24:56;102911.28;;;2.84;100.00
71485;BME280;59300;52.074;4.758;2023-01-27T09:28:00;102914.09;;;2.88;100.00
71485;BME280;59300;52.074;4.758;2023-01-27T09:31:03;102910.72;;;2.91;100.00
71485;BME280;59300;52.074;4.758;2023-01-27T09:34:30;102917.81;;;2.95;100.00
71485;BME280;59300;52.074;4.758;2023-01-27T09:37:42;102923.22;;;3.00;100.00
71485;BME280;59300;52.074;4.758;2023-01-27T09:41:12;102915.28;;;3.21;100.00
71485;BME280;59300;52.074;4.758;2023-01-27T09:54:09;102920.69;;;3.27;100.00
71485;BME280;59300;52.074;4.758;2023-01-27T09:57:27;102925.97;;;3.29;100.00
71485;BME280;59300;52.074;4.758;2023-01-27T10:07:52;102921.03;;;3.36;100.00
71485;BME280;59300;52.074;4.758;2023-01-27T10:11:03;102919.19;;;3.34;100.00
71485;BME280;59300;52.074;4.758;2023-01-27T10:20:59;102925.81;;;3.48;100.00
71485;BME280;59300;52.074;4.758;2023-01-27T10:24:15;102929.78;;;3.63;100.00
71485;BME280;59300;52.074;4.758;2023-01-27T10:27:23;102929.94;;;3.67;100.00
71485;BME280;59300;52.074;4.758;2023-01-27T10:30:37;102928.34;;;3.73;100.00
71485;BME280;59300;52.074;4.758;2023-01-27T10:33:50;102932.44;;;3.64;100.00
71485;BME280;59300;52.074;4.758;2023-01-27T10:36:55;102926.75;;;3.76;100.00
71485;BME280;59300;52.074;4.758;2023-01-27T10:43:29;102922.81;;;3.89;100.00
71485;BME280;59300;52.074;4.758;2023-01-27T10:46:43;102931.59;;;3.91;100.00
71485;BME280;59300;52.074;4.758;2023-01-27T10:49:56;102933.50;;;3.95;100.00
71485;BME280;59300;52.074;4.758;2023-01-27T11:00:05;102927.84;;;3.83;100.00
71485;BME280;59300;52.074;4.758;2023-01-27T11:03:40;102925.84;;;3.76;100.00
71485;BME280;59300;52.074;4.758;2023-01-27T11:06:42;102922.53;;;3.80;100.00
71485;BME280;59300;52.074;4.758;2023-01-27T11:09:59;102924.41;;;3.84;100.00
71485;BME280;59300;52.074;4.758;2023-01-27T11:13:02;102925.84;;;3.76;100.00
71485;BME280;59300;52.074;4.758;2023-01-27T11:16:16;102926.25;;;3.88;100.00
71485;BME280;59300;52.074;4.758;2023-01-27T11:19:27;102931.56;;;3.90;100.00
71485;BME280;59300;52.074;4.758;2023-01-27T11:23:14;102924.59;;;3.90;100.00
71485;BME280;59300;52.074;4.758;2023-01-27T11:35:28;102914.84;;;4.39;100.00
71485;BME280;59300;52.074;4.758;2023-01-27T11:38:30;102909.81;;;4.18;100.00
71485;BME280;59300;52.074;4.758;2023-01-27T11:41:32;102908.63;;;4.08;100.00
71485;BME280;59300;52.074;4.758;2023-01-27T11:44:43;102902.53;;;4.08;100.00
71485;BME280;59300;52.074;4.758;2023-01-27T11:47:48;102905.06;;;4.06;100.00
71485;BME280;59300;52.074;4.758;2023-01-27T11:50:51;102907.84;;;4.11;100.00
71485;BME280;59300;52.074;4.758;2023-01-27T11:57:22;102896.59;;;3.86;100.00
71485;BME280;59300;52.074;4.758;2023-01-27T12:00:25;102891.75;;;3.98;100.00
71485;BME280;59300;52.074;4.758;2023-01-27T12:06:49;102884.09;;;4.03;100.00
71485;BME280;59300;52.074;4.758;2023-01-27T12:09:53;102886.94;;;3.83;100.00
71485;BME280;59300;52.074;4.758;2023-01-27T12:13:00;102884.47;;;3.88;100.00
71485;BME280;59300;52.074;4.758;2023-01-27T12:16:16;102887.66;;;3.79;100.00
71485;BME280;59300;52.074;4.758;2023-01-27T12:19:30;102894.72;;;3.82;100.00
71485;BME280;59300;52.074;4.758;2023-01-27T12:22:33;102883.34;;;3.80;100.00
71485;BME280;59300;52.074;4.758;2023-01-27T12:25:43;102881.81;;;3.87;100.00
71485;BME280;59300;52.074;4.758;2023-01-27T12:28:46;102883.75;;;3.92;100.00
71485;BME280;59300;52.074;4.758;2023-01-27T12:31:53;102885.41;;;3.90;100.00
71485;BME280;59300;52.074;4.758;2023-01-27T12:35:25;102883.28;;;3.78;100.00
71485;BME280;59300;52.074;4.758;2023-01-27T12:38:28;102891.91;;;3.76;100.00
71485;BME280;59300;52.074;4.758;2023-01-27T12:41:33;102892.00;;;3.79;100.00
71485;BME280;59300;52.074;4.758;2023-01-27T12:44:47;102882.63;;;3.84;100.00
71485;BME280;59300;52.074;4.758;2023-01-27T12:51:47;102883.34;;;3.80;100.00
71485;BME280;59300;52.074;4.758;2023-01-27T12:54:26;102879.25;;;3.88;100.00
71485;BME280;59300;52.074;4.758;2023-01-27T12:57:28;102875.63;;;3.83;100.00
71485;BME280;59300;52.074;4.758;2023-01-27T13:00:31;102875.69;;;3.86;100.00
71485;BME280;59300;52.074;4.758;2023-01-27T13:03:39;102877.28;;;3.81;100.00
71485;BME280;59300;52.074;4.758;2023-01-27T13:06:43;102868.22;;;3.97;100.00
71485;BME280;59300;52.074;4.758;2023-01-27T13:12:51;102865.56;;;3.95;100.00
71485;BME280;59300;52.074;4.758;2023-01-27T13:15:54;102870.47;;;3.86;100.00
71485;BME280;59300;52.074;4.758;2023-01-27T13:18:57;102872.69;;;3.74;100.00
71485;BME280;59300;52.074;4.758;2023-01-27T13:21:59;102870.06;;;3.74;100.00
71485;BME280;59300;52.074;4.758;2023-01-27T13:25:02;102874.88;;;3.61;100.00
71485;BME280;59300;52.074;4.758;2023-01-27T13:28:06;102869.38;;;3.53;100.00
71485;BME280;59300;52.074;4.758;2023-01-27T13:31:12;102873.31;;;3.66;100.00
71485;BME280;59300;52.074;4.758;2023-01-27T13:37:40;102864.53;;;3.64;100.00
71485;BME280;59300;52.074;4.758;2023-01-27T13:40:45;102867.72;;;3.56;100.00
71485;BME280;59300;52.074;4.758;2023-01-27T13:44:07;102873.75;;;3.53;100.00
71485;BME280;59300;52.074;4.758;2023-01-27T13:47:15;102873.78;;;3.54;100.00
71485;BME280;59300;52.074;4.758;2023-01-27T13:50:21;102885.44;;;3.64;100.00
71485;BME280;59300;52.074;4.758;2023-01-27T13:53:23;102879.53;;;3.70;100.00
71485;BME280;59300;52.074;4.758;2023-01-27T14:02:59;102876.34;;;3.53;100.00
71485;BME280;59300;52.074;4.758;2023-01-27T14:06:17;102887.63;;;3.52;100.00
71485;BME280;59300;52.074;4.758;2023-01-27T14:09:43;102881.75;;;3.59;100.00
71485;BME280;59300;52.074;4.758;2023-01-27T14:16:06;102880.94;;;3.34;100.00
71485;BME280;59300;52.074;4.758;2023-01-27T14:22:46;102880.00;;;3.32;100.00
71485;BME280;59300;52.074;4.758;2023-01-27T14:35:30;102888.81;;;3.36;100.00
71485;BME280;59300;52.074;4.758;2023-01-27T14:38:33;102889.38;;;3.27;100.00
71485;BME280;59300;52.074;4.758;2023-01-27T14:41:53;102899.59;;;3.45;100.00
71485;BME280;59300;52.074;4.758;2023-01-27T14:54:27;102909.16;;;3.20;100.00
71485;BME280;59300;52.074;4.758;2023-01-27T14:57:41;102914.13;;;3.38;100.00
71485;BME280;59300;52.074;4.758;2023-01-27T15:00:57;102924.03;;;3.23;100.00
71485;BME280;59300;52.074;4.758;2023-01-27T15:04:21;102921.50;;;3.25;100.00
71485;BME280;59300;52.074;4.758;2023-01-27T15:07:25;102924.03;;;3.23;100.00
71485;BME280;59300;52.074;4.758;2023-01-27T15:10:30;102918.91;;;3.26;100.00
71485;BME280;59300;52.074;4.758;2023-01-27T15:16:56;102929.03;;;3.17;100.00
71485;BME280;59300;52.074;4.758;2023-01-27T15:20:23;102929.03;;;3.17;100.00
71485;BME280;59300;52.074;4.758;2023-01-27T15:26:27;102939.59;;;3.20;100.00
71485;BME280;59300;52.074;4.758;2023-01-27T15:29:29;102943.75;;;3.15;100.00
71485;BME280;59300;52.074;4.758;2023-01-27T15:32:35;102942.78;;;3.13;100.00
71485;BME280;59300;52.074;4.758;2023-01-27T15:35:39;102944.44;;;3.11;100.00
71485;BME280;59300;52.074;4.758;2023-01-27T15:38:41;102936.41;;;3.04;100.00
71485;BME280;59300;52.074;4.758;2023-01-27T15:41:50;102941.84;;;3.11;100.00
71485;BME280;59300;52.074;4.758;2023-01-27T15:45:02;102935.47;;;3.02;100.00
71485;BME280;59300;52.074;4.758;2023-01-27T15:48:14;102933.41;;;2.94;100.00
71485;BME280;59300;52.074;4.758;2023-01-27T15:51:18;102941.00;;;2.87;100.00
71485;BME280;59300;52.074;4.758;2023-01-27T15:54:22;102945.41;;;2.88;100.00
71485;BME280;59300;52.074;4.758;2023-01-27T15:57:30;102940.44;;;2.96;100.00
71485;BME280;59300;52.074;4.758;2023-01-27T16:00:34;102939.97;;;2.84;100.00
71485;BME280;59300;52.074;4.758;2023-01-27T16:03:40;102934.66;;;2.81;100.00
71485;BME280;59300;52.074;4.758;2023-01-27T16:06:46;102940.06;;;2.85;100.00
71485;BME280;59300;52.074;4.758;2023-01-27T16:09:48;102938.16;;;2.81;100.00
71485;BME280;59300;52.074;4.758;2023-01-27T16:12:53;102939.16;;;2.85;100.00
71485;BME280;59300;52.074;4.758;2023-01-27T16:22:21;102948.75;;;2.86;100.00
71485;BME280;59300;52.074;4.758;2023-01-27T16:28:44;102957.84;;;2.73;100.00
71485;BME280;59300;52.074;4.758;2023-01-27T16:31:50;102956.88;;;2.71;100.00
71485;BME280;59300;52.074;4.758;2023-01-27T16:34:54;102968.41;;;2.76;100.00
71485;BME280;59300;52.074;4.758;2023-01-27T16:38:05;102971.06;;;2.78;100.00
71485;BME280;59300;52.074;4.758;2023-01-27T16:44:19;102979.56;;;2.73;100.00
71485;BME280;59300;52.074;4.758;2023-01-27T16:47:25;102978.63;;;2.71;100.00
71485;BME280;59300;52.074;4.758;2023-01-27T16:50:37;102982.78;;;2.66;100.00
71485;BME280;59300;52.074;4.758;2023-01-27T16:53:44;102981.88;;;2.66;100.00
71485;BME280;59300;52.074;4.758;2023-01-27T16:56:47;102987.09;;;2.66;100.00
71485;BME280;59300;52.074;4.758;2023-01-27T16:59:50;102987.34;;;2.72;100.00
71485;BME280;59300;52.074;4.758;2023-01-27T17:02:52;102987.69;;;2.81;100.00
71485;BME280;59300;52.074;4.758;2023-01-27T17:05:54;102987.41;;;2.73;100.00
71485;BME280;59300;52.074;4.758;2023-01-27T17:08:57;103000.56;;;2.76;100.00
71485;BME280;59300;52.074;4.758;2023-01-27T17:11:58;102999.38;;;2.68;100.00
71485;BME280;59300;52.074;4.758;2023-01-27T17:15:01;103008.03;;;2.67;100.00
71485;BME280;59300;52.074;4.758;2023-01-27T17:18:09;103004.91;;;2.76;100.00
71485;BME280;59300;52.074;4.758;2023-01-27T17:21:11;103008.25;;;2.73;100.00
71485;BME280;59300;52.074;4.758;2023-01-27T17:24:23;103015.03;;;2.68;100.00
71485;BME280;59300;52.074;4.758;2023-01-27T17:27:26;103009.34;;;2.79;100.00
71485;BME280;59300;52.074;4.758;2023-01-27T17:30:32;103015.06;;;2.70;100.00
71485;BME280;59300;52.074;4.758;2023-01-27T17:33:34;103013.38;;;2.70;100.00
71485;BME280;59300;52.074;4.758;2023-01-27T17:36:36;103007.31;;;2.71;100.00
71485;BME280;59300;52.074;4.758;2023-01-27T17:39:40;103020.28;;;2.70;100.00
71485;BME280;59300;52.074;4.758;2023-01-27T17:42:42;103024.38;;;2.63;100.00
71485;BME280;59300;52.074;4.758;2023-01-27T17:45:44;103026.28;;;2.67;100.00
71485;BME280;59300;52.074;4.758;2023-01-27T17:51:50;103026.97;;;2.63;100.00
71485;BME280;59300;52.074;4.758;2023-01-27T17:54:52;103034.47;;;2.55;100.00
71485;BME280;59300;52.074;4.758;2023-01-27T17:58:01;103035.44;;;2.57;100.00
71485;BME280;59300;52.074;4.758;2023-01-27T18:01:04;103040.00;;;2.63;100.00